Beardmore, Canada
Current Conditions -  °F | °C
As of 1:00 AM on Sunday 23 Nov 2014 (Local Time) from CYGQ Reporting Station
Overcast Overcast  
Wind Chill: 20°   Ceiling: 2000
Heat Index: 27°   Visibility: 8mi
Dew Point: 23°   Wind: 6mph
Humidity: 86%   Direction: 80°E
Pressure: 29.68"   Gusts: NA
Location:  49.6°N, 87.95°W
Report Text: CYGQ 230600Z 08005KT 8SM OVC020 M03/M05 A2968 RMK SC8 SLP071
Loading
Personal Weather Stations






























Interactive Weather Map New forecast layout! Learn more

10-Day Weather Forecast

Advertisements
Track Severe Weather on mobile